Time;durP1;ratioP1;P1;durP2;ratioP2;P2;SDS_P1;SDS_P2;PMS_P1;PMS_P2;Temp;Humidity;BMP_temperature;BMP_pressure;BME280_temperature;BME280_humidity;BME280_pressure;Samples;Min_cycle;Max_cycle;Signal;HPM_P1;HPM_P2
2023/07/19 00:00:14;;;;;;;4.75;2.28;;;18.00;99.90;;;;;;5071438;28;20052;-55
2023/07/19 00:02:39;;;;;;;4.55;2.30;;;18.00;99.90;;;;;;5071761;28;20056;-54
2023/07/19 00:05:07;;;;;;;5.57;2.55;;;18.00;99.90;;;;;;5059762;28;20205;-56
2023/07/19 00:07:33;;;;;;;5.70;2.42;;;18.00;99.90;;;;;;5060286;28;20041;-55
2023/07/19 00:09:58;;;;;;;6.28;2.80;;;18.00;99.90;;;;;;5055025;28;20043;-56
2023/07/19 00:12:24;;;;;;;8.30;2.63;;;17.90;99.90;;;;;;5068079;28;20112;-55
2023/07/19 00:14:50;;;;;;;6.30;2.67;;;17.90;99.90;;;;;;5057479;28;20369;-56
2023/07/19 00:17:15;;;;;;;5.60;2.67;;;17.90;99.90;;;;;;5070611;28;20500;-55
2023/07/19 00:19:41;;;;;;;4.93;2.83;;;17.90;99.90;;;;;;5071438;28;20432;-55
2023/07/19 00:22:08;;;;;;;3.22;2.47;;;17.90;99.90;;;;;;5065094;28;20099;-55
2023/07/19 00:24:34;;;;;;;5.50;2.15;;;17.90;99.90;;;;;;5062567;28;20048;-55
2023/07/19 00:27:00;;;;;;;7.93;2.85;;;17.90;99.90;;;;;;5071205;28;20024;-55
2023/07/19 00:29:25;;;;;;;4.47;2.38;;;17.90;99.90;;;;;;5071096;28;20131;-56
2023/07/19 00:31:51;;;;;;;5.80;2.90;;;17.80;99.90;;;;;;5071283;28;20097;-55
2023/07/19 00:34:17;;;;;;;3.88;2.47;;;17.80;99.90;;;;;;5071187;28;20037;-55
2023/07/19 00:36:43;;;;;;;6.63;2.55;;;17.90;99.90;;;;;;5071253;28;20036;-55
2023/07/19 00:39:08;;;;;;;5.30;2.40;;;17.80;99.90;;;;;;5066448;28;20048;-55
2023/07/19 00:41:34;;;;;;;5.57;2.90;;;17.80;99.90;;;;;;5061791;28;20119;-55
2023/07/19 00:43:59;;;;;;;3.83;2.40;;;17.80;99.90;;;;;;5071092;28;20044;-55
2023/07/19 00:46:26;;;;;;;4.38;2.90;;;17.80;99.90;;;;;;5071297;28;20093;-55
2023/07/19 00:48:52;;;;;;;5.57;2.63;;;17.80;99.90;;;;;;5071172;28;20059;-55
2023/07/19 00:51:18;;;;;;;6.45;2.80;;;17.80;99.90;;;;;;5071314;28;20051;-55
2023/07/19 00:53:47;;;;;;;4.15;2.70;;;17.80;99.90;;;;;;5071342;28;20037;-55
2023/07/19 00:56:13;;;;;;;4.60;2.92;;;17.80;99.90;;;;;;5070971;28;20037;-54
2023/07/19 00:58:39;;;;;;;5.45;3.05;;;17.80;99.90;;;;;;5070869;28;20058;-55
2023/07/19 01:01:06;;;;;;;7.05;3.13;;;17.80;99.90;;;;;;5070968;28;20028;-55
2023/07/19 01:03:31;;;;;;;4.50;2.45;;;17.80;99.90;;;;;;5071109;28;20080;-55
2023/07/19 01:05:58;;;;;;;3.00;2.45;;;17.80;99.90;;;;;;5071164;28;20079;-55
2023/07/19 01:08:24;;;;;;;8.65;2.75;;;17.80;99.90;;;;;;5070972;28;20128;-56
2023/07/19 01:10:51;;;;;;;7.10;3.30;;;17.80;99.90;;;;;;5072879;28;20072;-55
2023/07/19 01:13:16;;;;;;;6.68;2.75;;;17.80;99.90;;;;;;5070262;28;20393;-55
2023/07/19 01:15:42;;;;;;;4.97;2.67;;;17.80;99.90;;;;;;5098254;28;20066;-54
2023/07/19 01:18:08;;;;;;;8.02;3.25;;;17.80;99.90;;;;;;5074282;28;20487;-55
2023/07/19 01:20:34;;;;;;;6.22;2.83;;;17.80;99.90;;;;;;5074495;28;20075;-55
2023/07/19 01:23:01;;;;;;;5.55;3.13;;;17.80;99.90;;;;;;5074464;28;20045;-55
2023/07/19 01:25:26;;;;;;;3.55;2.67;;;17.80;99.90;;;;;;5074572;28;20044;-55
2023/07/19 01:27:52;;;;;;;5.72;3.13;;;17.80;99.90;;;;;;5074067;28;20506;-56
2023/07/19 01:30:18;;;;;;;5.45;3.15;;;17.80;99.90;;;;;;5074238;28;20032;-55
2023/07/19 01:32:44;;;;;;;5.97;3.08;;;17.80;99.90;;;;;;5072687;28;20084;-55
2023/07/19 01:35:11;;;;;;;3.20;2.90;;;17.80;99.90;;;;;;5074000;28;20047;-55
2023/07/19 01:37:36;;;;;;;4.38;3.10;;;17.80;99.90;;;;;;5074070;28;20043;-55
2023/07/19 01:40:04;;;;;;;11.20;3.47;;;17.70;99.90;;;;;;5073883;28;20049;-55
2023/07/19 01:42:29;;;;;;;5.28;3.38;;;17.70;99.90;;;;;;5073878;28;20530;-55
2023/07/19 01:44:55;;;;;;;4.20;2.70;;;17.70;99.90;;;;;;5074050;28;20119;-55
2023/07/19 01:47:20;;;;;;;5.07;3.22;;;17.70;99.90;;;;;;5073902;28;20036;-54
2023/07/19 01:49:46;;;;;;;9.30;3.65;;;17.70;99.90;;;;;;5073986;28;20116;-55
2023/07/19 01:52:12;;;;;;;11.40;3.88;;;17.70;99.90;;;;;;5073767;28;20078;-55
2023/07/19 01:54:37;;;;;;;5.90;2.80;;;17.70;99.90;;;;;;5073945;28;20079;-55
2023/07/19 01:57:04;;;;;;;5.55;2.97;;;17.60;99.90;;;;;;5073409;28;20116;-55
2023/07/19 01:59:30;;;;;;;5.63;3.25;;;17.70;99.90;;;;;;5072306;28;20048;-55
2023/07/19 02:01:56;;;;;;;8.18;3.17;;;17.60;99.90;;;;;;5073826;28;20056;-54
2023/07/19 02:04:22;;;;;;;5.32;3.00;;;17.60;99.90;;;;;;5073611;28;20465;-55
2023/07/19 02:06:48;;;;;;;4.80;3.58;;;17.60;99.90;;;;;;5073841;28;20494;-55
2023/07/19 02:09:13;;;;;;;7.82;3.05;;;17.50;99.90;;;;;;5073589;28;20059;-55
2023/07/19 02:11:40;;;;;;;6.95;3.13;;;17.60;99.90;;;;;;5073592;28;20098;-54
2023/07/19 02:14:06;;;;;;;8.35;3.97;;;17.50;99.90;;;;;;5061885;28;20461;-55
2023/07/19 02:16:31;;;;;;;5.75;3.42;;;17.50;99.90;;;;;;5070457;28;20029;-55
2023/07/19 02:18:57;;;;;;;6.65;3.85;;;17.40;99.90;;;;;;5073370;28;20046;-55
2023/07/19 02:21:23;;;;;;;4.93;3.13;;;17.40;99.90;;;;;;5072181;28;20037;-56
2023/07/19 02:23:48;;;;;;;6.72;3.97;;;17.40;99.90;;;;;;5072910;28;20102;-55
2023/07/19 02:26:14;;;;;;;6.05;3.88;;;17.40;99.90;;;;;;5071928;28;20047;-55
2023/07/19 02:28:40;;;;;;;6.38;3.00;;;17.40;99.90;;;;;;5073039;28;20037;-55
2023/07/19 02:31:06;;;;;;;6.00;3.38;;;17.40;99.90;;;;;;5073308;28;20115;-54
2023/07/19 02:33:31;;;;;;;6.13;3.58;;;17.50;99.90;;;;;;5073013;28;20038;-55
2023/07/19 02:35:57;;;;;;;5.75;3.58;;;17.40;99.90;;;;;;5072922;28;20116;-56
2023/07/19 02:38:26;;;;;;;9.70;3.95;;;17.40;99.90;;;;;;5073203;28;20055;-56
2023/07/19 02:40:59;;;;;;;8.35;4.32;;;17.40;99.90;;;;;;5073240;28;20036;-56
2023/07/19 02:43:25;;;;;;;8.00;4.38;;;17.40;99.90;;;;;;5071535;28;20534;-56
2023/07/19 02:45:54;;;;;;;5.35;3.65;;;17.30;99.90;;;;;;5072776;28;20072;-55
2023/07/19 02:48:21;;;;;;;5.40;3.63;;;17.30;99.90;;;;;;5072711;28;20368;-55
2023/07/19 02:50:48;;;;;;;6.63;3.78;;;17.40;99.90;;;;;;5072389;28;20051;-55
2023/07/19 02:53:14;;;;;;;8.27;4.20;;;17.30;99.90;;;;;;5072718;28;20032;-55
2023/07/19 02:55:42;;;;;;;6.30;3.75;;;17.30;99.90;;;;;;5072612;28;20029;-55
2023/07/19 02:58:07;;;;;;;6.70;4.07;;;17.20;99.90;;;;;;5071182;28;20402;-55
2023/07/19 03:00:33;;;;;;;6.68;3.50;;;17.20;99.90;;;;;;5072470;28;20271;-56
2023/07/19 03:02:59;;;;;;;5.93;3.80;;;17.20;99.90;;;;;;5072421;28;20043;-55
2023/07/19 03:05:24;;;;;;;4.50;3.60;;;17.20;99.90;;;;;;5072475;28;20051;-54
2023/07/19 03:07:50;;;;;;;5.65;3.65;;;17.20;99.90;;;;;;5072125;28;20055;-55
2023/07/19 03:10:16;;;;;;;5.07;3.55;;;17.20;99.90;;;;;;5072500;28;20402;-55
2023/07/19 03:12:42;;;;;;;5.18;3.70;;;17.20;99.90;;;;;;5071202;28;20068;-56
2023/07/19 03:15:08;;;;;;;6.00;3.75;;;17.20;99.90;;;;;;5058036;28;20068;-56
2023/07/19 03:17:34;;;;;;;9.98;4.45;;;17.20;99.90;;;;;;5072371;28;20036;-56
2023/07/19 03:20:00;;;;;;;9.23;4.18;;;17.20;99.90;;;;;;5071043;28;20067;-55
2023/07/19 03:22:25;;;;;;;6.25;4.30;;;17.10;99.90;;;;;;5072605;28;20487;-55
2023/07/19 03:24:51;;;;;;;10.43;4.80;;;17.00;99.90;;;;;;5072454;28;20047;-56
2023/07/19 03:27:16;;;;;;;7.90;4.20;;;16.90;99.90;;;;;;5071908;28;20037;-54
2023/07/19 03:29:42;;;;;;;7.63;4.15;;;17.00;99.90;;;;;;5070809;28;20109;-56
2023/07/19 03:32:08;;;;;;;7.95;4.50;;;17.00;99.90;;;;;;5070421;28;20127;-56
2023/07/19 03:34:34;;;;;;;6.30;4.65;;;17.00;99.90;;;;;;5071577;28;20028;-56
2023/07/19 03:36:59;;;;;;;7.55;4.43;;;17.10;99.90;;;;;;5071631;28;20032;-55
2023/07/19 03:39:25;;;;;;;9.32;4.75;;;17.10;99.90;;;;;;5072193;28;20044;-55
2023/07/19 03:41:51;;;;;;;5.82;4.78;;;17.10;99.90;;;;;;5072043;28;20036;-56
2023/07/19 03:44:17;;;;;;;6.80;4.70;;;17.00;99.90;;;;;;5071808;28;20043;-55
2023/07/19 03:46:43;;;;;;;7.28;5.13;;;17.10;99.90;;;;;;5071935;28;20127;-55
2023/07/19 03:49:08;;;;;;;8.43;5.30;;;17.00;99.90;;;;;;5070370;28;20124;-55
2023/07/19 03:51:34;;;;;;;11.07;5.55;;;16.90;99.90;;;;;;5071787;28;20035;-56
2023/07/19 03:54:00;;;;;;;10.75;5.93;;;16.80;99.90;;;;;;5071893;28;20033;-56
2023/07/19 03:56:25;;;;;;;9.05;5.50;;;16.80;99.90;;;;;;5072067;28;20036;-56
2023/07/19 03:58:51;;;;;;;8.55;5.70;;;16.80;99.90;;;;;;5071760;28;20066;-56
2023/07/19 04:01:17;;;;;;;6.60;5.18;;;16.80;99.90;;;;;;5071644;28;20044;-56
2023/07/19 04:03:43;;;;;;;8.40;5.38;;;16.80;99.90;;;;;;5071785;28;20467;-56
2023/07/19 04:06:09;;;;;;;7.78;5.13;;;16.80;99.90;;;;;;5071702;28;20048;-56
2023/07/19 04:08:34;;;;;;;7.40;4.78;;;16.90;99.90;;;;;;5071542;28;20037;-57
2023/07/19 04:11:00;;;;;;;5.95;5.10;;;16.90;99.90;;;;;;5071602;28;20511;-53
2023/07/19 04:13:27;;;;;;;7.95;5.93;;;16.80;99.90;;;;;;5065789;28;20059;-54
2023/07/19 04:15:53;;;;;;;8.35;5.47;;;16.90;99.90;;;;;;5063830;28;20044;-54
2023/07/19 04:18:19;;;;;;;9.82;5.70;;;16.80;99.90;;;;;;5071808;28;20079;-55
2023/07/19 04:20:45;;;;;;;11.55;6.30;;;16.80;99.90;;;;;;5071838;28;20040;-55
2023/07/19 04:23:11;;;;;;;7.95;5.85;;;16.80;99.90;;;;;;5071444;28;20058;-54
2023/07/19 04:25:37;;;;;;;5.97;5.32;;;16.80;99.90;;;;;;5071587;28;20482;-55
2023/07/19 04:28:03;;;;;;;9.75;5.88;;;16.80;99.90;;;;;;5071192;28;20029;-53
2023/07/19 04:30:29;;;;;;;7.53;6.05;;;16.80;99.90;;;;;;5071525;28;20550;-55
2023/07/19 04:32:55;;;;;;;10.20;6.45;;;16.80;99.90;;;;;;5071449;28;20040;-55
2023/07/19 04:35:24;;;;;;;8.25;6.07;;;16.80;99.90;;;;;;5071130;28;20036;-55
2023/07/19 04:37:50;;;;;;;11.05;6.22;;;16.80;99.90;;;;;;5071487;28;20082;-54
2023/07/19 04:40:16;;;;;;;10.20;6.80;;;16.90;99.90;;;;;;5071405;28;20048;-54
2023/07/19 04:42:42;;;;;;;8.27;7.00;;;16.90;99.90;;;;;;5071579;28;20040;-55
2023/07/19 04:45:08;;;;;;;12.05;6.80;;;16.80;99.90;;;;;;5072276;28;20390;-55
2023/07/19 04:47:37;;;;;;;9.80;7.15;;;16.90;99.90;;;;;;5074012;28;20037;-54
2023/07/19 04:50:06;;;;;;;8.20;6.95;;;16.90;99.90;;;;;;5075163;28;20037;-55
2023/07/19 04:52:32;;;;;;;8.68;6.93;;;16.90;99.90;;;;;;5073694;28;20086;-55
2023/07/19 04:54:58;;;;;;;8.85;6.88;;;16.90;99.90;;;;;;5075043;28;20048;-53
2023/07/19 04:57:23;;;;;;;9.45;7.50;;;16.80;99.90;;;;;;5074582;28;20474;-55
2023/07/19 04:59:49;;;;;;;8.52;7.00;;;16.90;99.90;;;;;;5075159;28;20072;-55
2023/07/19 05:02:15;;;;;;;11.25;7.00;;;16.90;99.90;;;;;;5074594;28;20111;-55
2023/07/19 05:04:40;;;;;;;9.82;6.78;;;16.80;99.90;;;;;;5074563;28;20124;-55
2023/07/19 05:07:06;;;;;;;14.80;6.93;;;16.90;99.90;;;;;;5073944;28;20075;-55
2023/07/19 05:09:31;;;;;;;15.35;7.90;;;16.90;99.90;;;;;;5075039;28;20506;-53
2023/07/19 05:11:57;;;;;;;14.90;6.90;;;16.90;99.90;;;;;;5075134;28;20137;-54
2023/07/19 05:14:23;;;;;;;11.57;7.10;;;16.90;99.90;;;;;;5061043;28;20430;-55
2023/07/19 05:16:50;;;;;;;13.57;7.50;;;17.00;99.90;;;;;;5074142;28;20533;-55
2023/07/19 05:19:15;;;;;;;9.13;6.32;;;17.00;99.90;;;;;;5074622;28;20037;-54
2023/07/19 05:21:41;;;;;;;9.95;6.13;;;17.00;99.90;;;;;;5074429;28;20402;-55
2023/07/19 05:24:07;;;;;;;7.57;6.13;;;17.00;99.90;;;;;;5074390;28;20086;-55
2023/07/19 05:26:32;;;;;;;8.55;6.15;;;17.00;99.90;;;;;;5074149;28;20036;-55
2023/07/19 05:28:58;;;;;;;8.98;5.90;;;17.00;99.90;;;;;;5074237;28;20047;-55
2023/07/19 05:31:24;;;;;;;9.77;4.88;;;17.00;99.90;;;;;;5074397;28;20166;-53
2023/07/19 05:33:49;;;;;;;11.05;4.97;;;17.00;99.90;;;;;;5074282;28;20068;-54
2023/07/19 05:36:15;;;;;;;9.93;5.13;;;17.00;99.90;;;;;;5074309;28;20119;-55
2023/07/19 05:38:41;;;;;;;8.30;5.05;;;17.00;99.90;;;;;;5074041;28;20133;-54
2023/07/19 05:41:06;;;;;;;8.50;5.07;;;16.90;99.90;;;;;;5073976;28;20051;-55
2023/07/19 05:43:33;;;;;;;7.43;5.13;;;17.00;99.90;;;;;;5074209;28;20037;-55
2023/07/19 05:46:06;;;;;;;7.45;5.60;;;17.00;99.90;;;;;;5073774;28;20051;-54
2023/07/19 05:48:32;;;;;;;12.63;6.50;;;17.00;99.90;;;;;;5073805;28;20044;-54
2023/07/19 05:50:58;;;;;;;8.63;5.10;;;17.10;99.90;;;;;;5073856;28;20093;-52
2023/07/19 05:53:24;;;;;;;5.97;5.38;;;17.10;99.90;;;;;;5074151;28;20036;-54
2023/07/19 05:55:52;;;;;;;10.48;5.80;;;17.20;99.90;;;;;;5073450;28;20065;-55
2023/07/19 05:58:21;;;;;;;8.68;5.63;;;17.10;99.90;;;;;;5073603;28;20047;-54
2023/07/19 06:00:50;;;;;;;9.48;5.60;;;17.20;99.90;;;;;;5073837;28;20049;-55
2023/07/19 06:03:16;;;;;;;8.77;4.60;;;17.20;99.90;;;;;;5073772;28;20040;-54
2023/07/19 06:05:45;;;;;;;6.50;5.05;;;17.10;99.90;;;;;;5072213;28;20056;-55
2023/07/19 06:08:11;;;;;;;;;;;17.20;99.90;;;;;;5073795;28;20075;-53
2023/07/19 06:10:37;;;;;;;9.63;4.47;;;17.10;99.90;;;;;;5073233;28;19964;-55
2023/07/19 06:13:05;;;;;;;9.07;4.97;;;17.10;99.90;;;;;;5070603;28;20032;-53
2023/07/19 06:15:34;;;;;;;10.40;5.13;;;17.10;99.90;;;;;;5062600;28;20116;-55
2023/07/19 06:18:01;;;;;;;6.63;4.00;;;17.10;99.90;;;;;;5073412;28;20040;-54
2023/07/19 06:20:27;;;;;;;5.15;2.88;;;17.00;99.90;;;;;;5073393;28;20083;-54
2023/07/19 06:22:52;;;;;;;7.03;3.10;;;17.00;99.90;;;;;;5073162;28;20045;-55
2023/07/19 06:25:18;;;;;;;9.23;4.03;;;17.00;99.90;;;;;;5072998;28;20111;-53
2023/07/19 06:27:44;;;;;;;7.35;3.60;;;16.90;99.90;;;;;;5073202;28;20043;-55
2023/07/19 06:30:10;;;;;;;6.80;4.00;;;17.00;99.90;;;;;;5073277;28;20063;-55
2023/07/19 06:32:36;;;;;;;7.00;3.28;;;17.00;99.90;;;;;;5071817;28;20435;-54
2023/07/19 06:35:03;;;;;;;8.45;3.42;;;16.90;99.90;;;;;;5072975;28;20094;-55
2023/07/19 06:37:29;;;;;;;6.38;3.00;;;17.00;99.90;;;;;;5073296;28;20036;-55
2023/07/19 06:39:55;;;;;;;4.10;2.80;;;17.00;99.90;;;;;;5072784;28;20523;-55
2023/07/19 06:42:20;;;;;;;5.85;2.83;;;17.00;99.90;;;;;;5072636;28;20424;-53
2023/07/19 06:44:47;;;;;;;6.50;2.38;;;17.00;99.90;;;;;;5073000;28;20058;-54
2023/07/19 06:47:14;;;;;;;4.43;1.83;;;17.10;99.90;;;;;;5071743;28;20039;-52
2023/07/19 06:49:40;;;;;;;7.05;2.30;;;17.10;99.90;;;;;;5072684;28;20049;-53
2023/07/19 06:52:06;;;;;;;5.25;2.08;;;17.20;99.90;;;;;;5072485;28;20423;-53
2023/07/19 06:54:32;;;;;;;9.27;2.78;;;17.20;99.90;;;;;;5072974;28;20047;-53
2023/07/19 06:56:58;;;;;;;5.93;2.78;;;17.20;99.90;;;;;;5072744;28;20036;-53
2023/07/19 06:59:23;;;;;;;6.28;2.80;;;17.20;99.90;;;;;;5071468;28;20048;-54
2023/07/19 07:01:49;;;;;;;6.50;2.80;;;17.20;99.90;;;;;;5072765;28;20502;-54
2023/07/19 07:04:15;;;;;;;8.23;3.15;;;17.30;99.90;;;;;;5071955;28;20410;-54
2023/07/19 07:06:40;;;;;;;7.05;3.13;;;17.30;99.90;;;;;;5072581;28;20048;-52
2023/07/19 07:09:07;;;;;;;8.77;3.22;;;17.30;99.90;;;;;;5071381;28;20095;-54
2023/07/19 07:11:32;;;;;;;4.40;2.95;;;17.40;99.90;;;;;;5072171;28;20036;-54
2023/07/19 07:13:58;;;;;;;5.32;3.38;;;17.40;99.90;;;;;;5062032;28;20395;-54
2023/07/19 07:16:24;;;;;;;4.35;2.55;;;17.60;99.90;;;;;;5068468;28;20072;-52
2023/07/19 07:18:49;;;;;;;7.93;3.38;;;17.60;99.90;;;;;;5072486;28;20107;-54
2023/07/19 07:21:15;;;;;;;5.45;2.60;;;17.70;99.90;;;;;;5071973;28;20040;-52
2023/07/19 07:23:41;;;;;;;6.53;2.50;;;17.70;99.90;;;;;;5072322;28;20067;-55
2023/07/19 07:26:07;;;;;;;6.85;2.45;;;17.80;99.90;;;;;;5072346;28;20119;-53
2023/07/19 07:28:32;;;;;;;5.68;1.80;;;17.80;99.90;;;;;;5072038;28;20033;-54
2023/07/19 07:31:05;;;;;;;2.92;1.90;;;17.80;99.90;;;;;;5072200;28;20033;-55
2023/07/19 07:33:31;;;;;;;4.65;1.70;;;17.90;99.90;;;;;;5070558;28;20467;-54
2023/07/19 07:35:57;;;;;;;4.22;1.92;;;17.90;99.90;;;;;;5071973;28;20039;-54
2023/07/19 07:38:22;;;;;;;3.97;1.90;;;17.80;99.90;;;;;;5071599;28;20046;-55
2023/07/19 07:40:48;;;;;;;7.03;1.92;;;17.90;99.90;;;;;;5071640;28;20032;-55
2023/07/19 07:43:14;;;;;;;6.80;1.73;;;17.90;99.90;;;;;;5072001;28;20040;-55
2023/07/19 07:45:39;;;;;;;9.13;2.33;;;17.90;99.90;;;;;;5071899;28;20036;-53
2023/07/19 07:48:05;;;;;;;4.18;1.85;;;17.90;99.90;;;;;;5071826;28;20037;-55
2023/07/19 07:50:31;;;;;;;5.82;2.15;;;18.00;99.90;;;;;;5072036;28;20032;-55
2023/07/19 07:52:56;;;;;;;3.65;1.50;;;18.00;99.90;;;;;;5071868;28;20032;-54
2023/07/19 07:55:22;;;;;;;4.60;1.95;;;18.10;99.90;;;;;;5071796;28;20115;-55
2023/07/19 07:57:48;;;;;;;6.72;2.42;;;18.20;99.90;;;;;;5071982;28;20033;-54
2023/07/19 08:00:15;;;;;;;5.72;1.83;;;18.30;99.90;;;;;;5071749;28;20036;-54
2023/07/19 08:02:40;;;;;;;3.55;1.83;;;18.30;99.90;;;;;;5071257;28;20506;-54
2023/07/19 08:05:08;;;;;;;4.63;1.63;;;18.40;99.90;;;;;;5071556;28;20086;-54
2023/07/19 08:07:33;;;;;;;3.88;1.92;;;18.50;99.90;;;;;;5071424;28;20036;-54
2023/07/19 08:09:59;;;;;;;5.95;2.08;;;18.50;99.90;;;;;;5071804;28;20043;-52
2023/07/19 08:12:25;;;;;;;3.70;1.73;;;18.70;99.90;;;;;;5071969;28;20044;-52
2023/07/19 08:14:50;;;;;;;4.65;2.10;;;18.70;99.90;;;;;;5057420;28;20115;-54
2023/07/19 08:17:16;;;;;;;3.42;1.50;;;18.80;99.90;;;;;;5071859;28;20075;-55
2023/07/19 08:19:42;;;;;;;7.18;1.60;;;18.70;99.90;;;;;;5073518;28;20116;-55
2023/07/19 08:22:24;;;;;;;2.83;1.70;;;18.80;99.90;;;;;;5075742;28;20078;-54
2023/07/19 08:24:50;;;;;;;7.00;1.70;;;18.90;99.90;;;;;;5075879;28;20101;-54
2023/07/19 08:27:15;;;;;;;5.40;1.38;;;19.20;99.90;;;;;;5076208;28;20040;-54
2023/07/19 08:29:41;;;;;;;12.15;1.70;;;19.70;99.90;;;;;;5075800;28;20116;-55
2023/07/19 08:32:07;;;;;;;5.13;1.40;;;20.10;99.90;;;;;;5075504;28;20041;-54
2023/07/19 08:34:32;;;;;;;5.60;1.15;;;20.00;99.90;;;;;;5075682;28;20037;-54
2023/07/19 08:36:59;;;;;;;6.00;1.70;;;20.20;99.90;;;;;;5075249;28;20494;-55
2023/07/19 08:39:27;;;;;;;4.88;1.30;;;20.20;99.90;;;;;;5075701;28;20036;-54
2023/07/19 08:41:53;;;;;;;4.80;1.40;;;20.00;99.90;;;;;;5075139;28;20044;-55
2023/07/19 08:44:23;;;;;;;2.63;1.23;;;20.30;99.90;;;;;;5075484;28;20032;-55
2023/07/19 08:46:49;;;;;;;4.80;1.27;;;20.60;99.90;;;;;;5072253;28;20040;-55
2023/07/19 08:49:18;;;;;;;5.32;1.23;;;20.60;99.90;;;;;;5065926;28;20052;-55
2023/07/19 08:51:45;;;;;;;4.57;1.27;;;20.90;99.90;;;;;;5055138;28;20033;-54
2023/07/19 08:54:11;;;;;;;4.78;1.17;;;21.20;99.90;;;;;;5055180;28;20037;-54
2023/07/19 08:56:38;;;;;;;4.63;1.60;;;21.50;99.90;;;;;;5055262;28;20069;-55
2023/07/19 08:59:05;;;;;;;6.10;1.42;;;21.50;99.90;;;;;;5054758;28;20037;-55
2023/07/19 09:01:31;;;;;;;5.15;1.15;;;21.60;99.90;;;;;;5054803;28;20041;-55
2023/07/19 09:03:57;;;;;;;3.40;1.05;;;21.50;99.90;;;;;;5054586;28;20064;-55
2023/07/19 09:06:24;;;;;;;4.78;1.08;;;21.40;99.90;;;;;;5054637;28;20045;-54
2023/07/19 09:08:51;;;;;;;7.53;1.63;;;21.10;99.90;;;;;;5054575;28;20079;-55
2023/07/19 09:11:21;;;;;;;6.18;1.48;;;20.80;99.90;;;;;;5054902;28;20037;-53
2023/07/19 09:13:53;;;;;;;5.25;1.20;;;20.50;99.90;;;;;;5054749;28;20112;-54
2023/07/19 09:16:35;;;;;;;10.82;1.83;;;20.50;99.90;;;;;;5069363;28;20040;-58
2023/07/19 09:19:01;;;;;;;4.35;1.58;;;20.50;99.90;;;;;;5063109;28;20104;-58
2023/07/19 09:21:31;;;;;;;5.70;2.25;;;20.40;99.90;;;;;;5055917;28;20493;-58
2023/07/19 09:23:58;;;;;;;5.93;1.70;;;20.40;99.90;;;;;;5060942;28;20048;-58
2023/07/19 09:26:24;;;;;;;3.08;1.33;;;20.20;99.90;;;;;;5052991;28;20048;-58
2023/07/19 09:28:51;;;;;;;3.67;1.15;;;20.10;99.90;;;;;;5054175;28;20029;-58
2023/07/19 09:31:17;;;;;;;6.13;1.63;;;20.00;99.90;;;;;;5052546;28;20116;-58
2023/07/19 09:33:42;;;;;;;4.20;1.73;;;20.00;99.90;;;;;;5054170;28;20163;-59
2023/07/19 09:36:08;;;;;;;5.28;1.70;;;20.30;99.90;;;;;;5054161;28;20069;-58
2023/07/19 09:38:34;;;;;;;3.95;1.60;;;20.70;99.90;;;;;;5062035;28;20915;-58
2023/07/19 09:41:00;;;;;;;4.13;1.40;;;20.90;99.90;;;;;;5054100;28;20044;-58
2023/07/19 09:43:25;;;;;;;4.22;1.45;;;20.80;99.90;;;;;;5053796;28;20040;-57
2023/07/19 09:45:51;;;;;;;4.35;1.50;;;20.70;99.90;;;;;;5053869;28;20376;-58
2023/07/19 09:48:20;;;;;;;6.78;1.50;;;20.50;99.90;;;;;;5054002;28;20182;-57
2023/07/19 09:50:49;;;;;;;5.57;1.40;;;20.30;99.90;;;;;;5053848;28;20047;-58
2023/07/19 09:53:15;;;;;;;6.65;1.30;;;20.20;99.90;;;;;;5053803;28;20040;-58
2023/07/19 09:55:43;;;;;;;3.13;1.67;;;20.20;99.90;;;;;;5053445;28;20383;-58
2023/07/19 09:58:12;;;;;;;4.05;1.40;;;20.40;99.90;;;;;;5053631;28;20067;-58
2023/07/19 10:00:41;;;;;;;5.05;1.65;;;20.60;99.90;;;;;;5053373;28;20510;-58
2023/07/19 10:03:08;;;;;;;5.45;1.20;;;20.60;99.90;;;;;;5053355;28;20037;-58
2023/07/19 10:05:36;;;;;;;3.03;0.95;;;20.80;99.90;;;;;;5053769;28;20036;-60
2023/07/19 10:08:05;;;;;;;5.15;1.10;;;21.30;99.90;;;;;;5059670;28;20509;-60
2023/07/19 10:10:38;;;;;;;3.17;1.10;;;21.10;99.90;;;;;;5059999;28;20033;-59
2023/07/19 10:13:04;;;;;;;4.03;1.25;;;20.80;99.90;;;;;;5053726;28;20041;-60
2023/07/19 10:15:30;;;;;;;4.15;1.25;;;20.70;99.90;;;;;;5067694;28;20040;-60
2023/07/19 10:17:58;;;;;;;7.07;1.50;;;20.60;99.90;;;;;;5060580;28;20049;-60
2023/07/19 10:20:35;;;;;;;3.67;0.93;;;20.60;99.90;;;;;;5059671;28;20491;-60
2023/07/19 10:23:05;;;;;;;4.97;1.63;;;20.60;99.90;;;;;;5054924;28;20112;-60
2023/07/19 10:25:51;;;;;;;17.50;1.55;;;20.50;99.90;;;;;;5053400;28;20112;-61
2023/07/19 10:28:30;;;;;;;4.53;1.10;;;21.30;99.90;;;;;;5052532;28;20045;-60
2023/07/19 10:31:00;;;;;;;7.00;1.55;;;21.50;99.90;;;;;;5053231;28;20391;-61
2023/07/19 10:33:29;;;;;;;3.45;1.25;;;21.50;99.90;;;;;;5053399;28;20061;-59
2023/07/19 10:36:06;;;;;;;3.47;0.95;;;21.40;99.90;;;;;;5067848;28;20040;-60
2023/07/19 10:38:32;;;;;;;2.28;1.33;;;21.00;99.90;;;;;;5073479;28;20041;-60
2023/07/19 10:41:05;;;;;;;3.53;1.10;;;20.80;99.90;;;;;;5072936;28;20841;-60
2023/07/19 10:43:33;;;;;;;3.42;1.27;;;20.50;99.90;;;;;;5071976;28;20048;-60
2023/07/19 10:46:00;;;;;;;2.97;1.17;;;20.20;99.90;;;;;;5072770;28;20368;-60
2023/07/19 10:48:29;;;;;;;7.78;1.25;;;20.00;99.90;;;;;;5069462;28;20040;-60
2023/07/19 10:50:56;;;;;;;2.42;1.02;;;19.90;99.90;;;;;;5067134;28;20040;-60
2023/07/19 10:53:23;;;;;;;2.85;0.85;;;20.10;99.90;;;;;;5072130;28;20059;-60
2023/07/19 10:55:55;;;;;;;2.47;1.23;;;20.40;99.90;;;;;;5062014;28;20024;-61
2023/07/19 10:58:21;;;;;;;2.85;1.17;;;20.80;99.90;;;;;;5058174;28;20119;-59
2023/07/19 11:00:48;;;;;;;1.63;0.68;;;21.00;99.90;;;;;;5069251;28;20036;-61
2023/07/19 11:03:15;;;;;;;3.58;0.98;;;21.20;99.90;;;;;;5052467;28;20420;-60
2023/07/19 11:05:46;;;;;;;2.20;0.90;;;21.40;99.90;;;;;;5071525;28;20038;-60
2023/07/19 11:08:27;;;;;;;2.33;0.80;;;21.90;99.90;;;;;;5072392;28;20039;-61
2023/07/19 11:10:55;;;;;;;2.08;1.10;;;22.40;99.90;;;;;;5072172;28;20036;-60
2023/07/19 11:13:22;;;;;;;2.50;1.10;;;21.90;99.90;;;;;;5068706;28;20028;-60
2023/07/19 11:15:57;;;;;;;3.13;0.85;;;21.50;99.90;;;;;;5130383;27;20883;-58
2023/07/19 11:18:39;;;;;;;4.82;1.20;;;21.70;99.90;;;;;;5116536;27;20044;-59
2023/07/19 11:21:06;;;;;;;3.33;1.10;;;21.40;99.90;;;;;;5125195;27;20035;-59
2023/07/19 11:23:38;;;;;;;3.47;1.10;;;22.80;99.90;;;;;;5109339;28;20136;-59
2023/07/19 11:26:08;;;;;;;3.33;0.80;;;22.80;99.90;;;;;;5109725;28;20451;-59
2023/07/19 11:28:36;;;;;;;0.95;0.65;;;22.70;99.90;;;;;;5129973;28;20039;-59
2023/07/19 11:31:03;;;;;;;4.28;0.90;;;23.00;99.90;;;;;;5130383;27;20043;-59
2023/07/19 11:33:29;;;;;;;3.10;0.82;;;23.50;99.90;;;;;;5128528;28;20039;-59
2023/07/19 11:35:55;;;;;;;1.05;0.65;;;25.00;99.90;;;;;;5130077;27;20096;-59
2023/07/19 11:38:22;;;;;;;2.67;0.88;;;24.30;99.90;;;;;;5115678;27;20032;-59
2023/07/19 11:40:48;;;;;;;2.22;0.82;;;24.90;99.90;;;;;;5127588;28;20071;-59
2023/07/19 11:43:13;;;;;;;2.85;0.63;;;23.70;99.90;;;;;;5122814;27;20067;-60
2023/07/19 11:45:39;;;;;;;3.15;0.88;;;24.50;99.90;;;;;;5116853;27;20039;-59
2023/07/19 11:48:05;;;;;;;1.05;0.50;;;25.00;99.90;;;;;;5127194;27;20082;-61
2023/07/19 11:50:30;;;;;;;3.35;0.70;;;24.80;99.90;;;;;;5124194;28;20416;-62
2023/07/19 11:52:59;;;;;;;2.78;0.60;;;25.30;99.90;;;;;;5114695;28;20039;-62
2023/07/19 11:55:25;;;;;;;2.17;0.73;;;25.40;99.90;;;;;;5121711;28;20401;-62
2023/07/19 11:57:52;;;;;;;1.88;0.60;;;24.90;99.90;;;;;;5117355;27;20044;-61
2023/07/19 12:00:20;;;;;;;2.42;0.73;;;25.80;99.90;;;;;;5108629;28;20035;-62
2023/07/19 12:02:47;;;;;;;2.38;0.82;;;25.20;99.90;;;;;;5109107;28;20054;-62
2023/07/19 12:05:19;;;;;;;5.23;1.07;;;24.70;99.90;;;;;;5108779;28;20036;-62
2023/07/19 12:07:45;;;;;;;1.98;0.75;;;24.50;99.90;;;;;;5112343;28;20762;-62
2023/07/19 12:10:12;;;;;;;0.95;0.70;;;24.10;99.90;;;;;;5128098;28;20039;-61
2023/07/19 12:12:39;;;;;;;2.25;1.25;;;24.00;99.90;;;;;;5129093;27;20043;-61
2023/07/19 12:15:09;;;;;;;1.30;0.55;;;23.50;99.90;;;;;;5128857;27;20039;-61
2023/07/19 12:17:36;;;;;;;2.22;0.57;;;23.80;99.90;;;;;;5129386;27;20075;-62
2023/07/19 12:20:06;;;;;;;2.67;1.17;;;23.60;99.90;;;;;;5129348;27;20039;-62
2023/07/19 12:22:33;;;;;;;2.67;0.80;;;23.20;99.90;;;;;;5115440;27;20163;-62
2023/07/19 12:24:59;;;;;;;2.00;1.05;;;23.20;99.90;;;;;;5128873;27;20039;-62
2023/07/19 12:27:26;;;;;;;2.55;0.98;;;23.50;99.90;;;;;;5109498;28;20039;-62
2023/07/19 12:29:52;;;;;;;5.07;1.00;;;23.30;99.90;;;;;;5115303;28;20027;-62
2023/07/19 12:32:18;;;;;;;1.50;0.75;;;23.80;99.90;;;;;;5115070;28;20032;-62
2023/07/19 12:34:45;;;;;;;3.80;0.60;;;24.10;99.90;;;;;;5113861;28;20047;-61
2023/07/19 12:37:12;;;;;;;1.67;0.70;;;24.10;99.90;;;;;;5115409;28;20487;-60
2023/07/19 12:39:38;;;;;;;1.48;0.93;;;23.70;99.90;;;;;;5114979;28;20131;-61
2023/07/19 12:42:04;;;;;;;1.73;0.63;;;23.70;99.90;;;;;;5115186;28;20457;-61